Time;durP1;ratioP1;P1;durP2;ratioP2;P2;SDS_P1;SDS_P2;PMS_P1;PMS_P2;Temp;Humidity;BMP_temperature;BMP_pressure;BME280_temperature;BME280_humidity;BME280_pressure;Samples;Min_cycle;Max_cycle;Signal;HPM_P1;HPM_P2
2021/01/31 00:01:38;;;;;;;12.97;8.17;;;;;;;-4.61;79.67;91433.61;1805146;79;21646;-76
2021/01/31 00:04:05;;;;;;;16.20;9.50;;;;;;;-4.58;79.26;91431.02;1805387;78;21707;-76
2021/01/31 00:06:32;;;;;;;23.03;12.40;;;;;;;-4.58;79.89;91436.89;1804679;79;21211;-76
2021/01/31 00:09:00;;;;;;;15.80;8.83;;;;;;;-4.56;79.56;91440.72;1806572;79;21622;-76
2021/01/31 00:11:28;;;;;;;15.87;9.27;;;;;;;-4.54;79.43;91450.43;1805128;79;21566;-77
2021/01/31 00:13:55;;;;;;;18.87;9.80;;;;;;;-4.52;79.33;91453.48;1805551;79;21092;-76
2021/01/31 00:16:23;;;;;;;25.10;12.43;;;;;;;-4.51;78.47;91466.22;1805779;79;21175;-77
2021/01/31 00:18:50;;;;;;;113.10;64.73;;;;;;;-4.68;78.44;91456.77;1805490;79;21246;-76
2021/01/31 00:21:18;;;;;;;40.30;25.60;;;;;;;-4.76;79.28;91463.81;1805635;79;21171;-76
2021/01/31 00:23:45;;;;;;;19.47;11.70;;;;;;;-4.74;79.89;91466.89;1805912;79;21096;-77
2021/01/31 00:26:15;;;;;;;15.43;10.83;;;;;;;-4.74;79.28;91462.13;1807123;79;21159;-76
2021/01/31 00:28:43;;;;;;;17.53;9.57;;;;;;;-4.77;79.28;91469.47;1806376;79;21183;-76
2021/01/31 00:31:10;;;;;;;28.57;15.60;;;;;;;-4.77;79.63;91478.19;1782467;79;21211;-76
2021/01/31 00:33:37;;;;;;;30.77;16.47;;;;;;;-4.75;79.45;91481.25;1804734;79;21195;-76
2021/01/31 00:36:05;;;;;;;16.20;9.43;;;;;;;-4.75;79.47;91477.84;1805796;79;21146;-76
2021/01/31 00:38:32;;;;;;;21.13;12.33;;;;;;;-4.72;79.08;91486.42;1804732;79;21171;-76
2021/01/31 00:40:59;;;;;;;21.10;11.43;;;;;;;-4.71;79.42;91485.30;1804887;79;21256;-76
2021/01/31 00:43:27;;;;;;;29.27;14.60;;;;;;;-4.68;79.47;91492.02;1804841;79;21511;-76
2021/01/31 00:45:56;;;;;;;25.17;13.40;;;;;;;-4.68;79.63;91485.38;1806244;79;21148;-76
2021/01/31 00:48:23;;;;;;;22.50;12.97;;;;;;;-4.68;79.53;91485.38;1806720;79;21162;-76
2021/01/31 00:50:53;;;;;;;15.17;8.77;;;;;;;-4.66;79.16;91487.70;1807999;79;21167;-77
2021/01/31 00:53:22;;;;;;;13.40;8.20;;;;;;;-4.70;77.71;91488.95;1806163;79;21257;-76
2021/01/31 00:55:51;;;;;;;15.47;9.03;;;;;;;-4.85;77.48;91485.00;1804694;79;21215;-76
2021/01/31 00:58:20;;;;;;;25.37;13.73;;;;;;;-4.95;77.73;91486.32;1803134;79;21207;-77
2021/01/31 01:00:49;;;;;;;30.23;16.03;;;;;;;-4.96;78.58;91479.48;1804827;79;21155;-76
2021/01/31 01:03:17;;;;;;;27.03;14.67;;;;;;;-4.94;78.60;91483.31;1806049;78;21641;-76
2021/01/31 01:05:46;;;;;;;17.57;10.70;;;;;;;-4.90;78.85;91497.97;1803278;79;21650;-76
2021/01/31 01:08:14;;;;;;;16.50;9.87;;;;;;;-4.88;78.83;91499.73;1804428;79;21128;-75
2021/01/31 01:10:41;;;;;;;28.33;16.57;;;;;;;-4.83;78.97;91504.76;1804020;79;21606;-76
2021/01/31 01:13:09;;;;;;;15.63;8.77;;;;;;;-4.78;78.20;91493.88;1805539;79;21235;-77
2021/01/31 01:15:36;;;;;;;14.53;9.30;;;;;;;-4.80;77.28;91497.44;1805058;79;21159;-77
2021/01/31 01:18:04;;;;;;;19.17;10.67;;;;;;;-4.93;77.26;91509.27;1805025;79;21594;-77
2021/01/31 01:20:32;;;;;;;37.57;18.67;;;;;;;-5.04;77.59;91509.05;1804602;79;21219;-78
2021/01/31 01:23:00;;;;;;;18.77;10.90;;;;;;;-5.05;78.70;91507.48;1803729;79;21155;-76
2021/01/31 01:25:28;;;;;;;19.53;11.10;;;;;;;-5.00;78.67;91503.27;1803541;78;21669;-76
2021/01/31 01:27:55;;;;;;;17.30;10.20;;;;;;;-4.96;78.92;91508.09;1804207;79;21172;-76
2021/01/31 01:30:27;;;;;;;19.83;11.93;;;;;;;-4.90;79.19;91512.55;1803927;78;21199;-77
2021/01/31 01:32:56;;;;;;;15.87;9.87;;;;;;;-4.89;79.13;91522.83;1804813;79;21179;-76
2021/01/31 01:35:24;;;;;;;19.90;11.07;;;;;;;-4.84;79.13;91521.79;1804750;79;21657;-77
2021/01/31 01:37:52;;;;;;;16.30;9.40;;;;;;;-4.79;79.60;91530.03;1806147;78;21116;-77
2021/01/31 01:40:27;;;;;;;18.37;11.00;;;;;;;-4.72;79.47;91531.52;1782185;79;21164;-76
2021/01/31 01:42:56;;;;;;;17.27;10.07;;;;;;;-4.70;79.34;91526.08;1817219;77;22266;-77
2021/01/31 01:45:25;;;;;;;19.50;10.73;;;;;;;-4.70;78.28;91527.41;1769052;80;21203;-76
2021/01/31 01:47:55;;;;;;;18.33;11.00;;;;;;;-4.75;77.85;91534.29;1748934;80;21116;-76
2021/01/31 01:50:35;;;;;;;19.67;11.57;;;;;;;-4.77;78.61;91526.48;1800399;78;21207;-78
2021/01/31 01:53:03;;;;;;;18.40;10.53;;;;;;;-4.77;78.79;91524.60;1811664;78;21056;-76
2021/01/31 01:55:33;;;;;;;12.43;7.40;;;;;;;-4.78;78.02;91528.34;1850626;76;22054;-76
2021/01/31 01:58:04;;;;;;;16.43;8.50;;;;;;;-4.83;77.65;91536.58;1851765;76;21124;-78
2021/01/31 02:00:34;;;;;;;15.17;9.47;;;;;;;-4.92;77.47;91539.98;1851471;76;21206;-77
2021/01/31 02:03:05;;;;;;;17.50;10.03;;;;;;;-5.01;77.18;91535.41;1852100;76;21194;-78
2021/01/31 02:05:33;;;;;;;18.97;10.43;;;;;;;-5.12;77.69;91535.16;1851660;76;21103;-77
2021/01/31 02:08:02;;;;;;;17.43;11.33;;;;;;;-5.13;78.13;91540.25;1850734;76;22525;-76
2021/01/31 02:10:29;;;;;;;14.97;9.13;;;;;;;-5.07;78.28;91536.80;1815739;76;21178;-76
2021/01/31 02:13:00;;;;;;;17.43;10.47;;;;;;;-5.09;77.76;91537.69;1850989;76;21147;-77
2021/01/31 02:15:27;;;;;;;24.57;14.33;;;;;;;-5.11;77.99;91544.66;1851437;76;21190;-77
2021/01/31 02:18:16;;;;;;;17.13;10.40;;;;;;;-5.06;78.80;91547.60;1815343;78;21167;-77
2021/01/31 02:21:07;;;;;;;16.33;8.93;;;;;;;-5.01;79.03;91547.33;1818539;77;22184;-77
2021/01/31 02:24:14;;;;;;;15.03;9.30;;;;;;;-4.93;78.87;91551.67;1790034;80;21433;-75
2021/01/31 02:27:37;;;;;;;17.17;10.10;;;;;;;-4.91;78.83;91562.16;1851475;76;21182;-75
2021/01/31 02:30:47;;;;;;;16.27;10.37;;;;;;;-4.90;78.73;91566.91;1850774;76;21186;-76
2021/01/31 02:33:32;;;;;;;29.40;15.37;;;;;;;-4.92;78.46;91565.94;1816526;77;21163;-77
2021/01/31 02:36:13;;;;;;;28.47;15.53;;;;;;;-4.93;78.69;91572.36;1850124;77;21621;-76
2021/01/31 02:38:55;;;;;;;24.87;13.87;;;;;;;-4.96;78.17;91574.92;1850696;76;21169;-75
2021/01/31 02:41:33;;;;;;;26.83;14.90;;;;;;;-5.01;78.33;91578.58;1851396;76;21091;-76
2021/01/31 02:44:05;;;;;;;17.43;9.70;;;;;;;-5.02;78.38;91590.86;1850934;76;21094;-74
2021/01/31 02:46:38;;;;;;;16.73;8.53;;;;;;;-4.98;78.30;91583.20;1851383;76;21075;-75
2021/01/31 02:49:22;;;;;;;14.07;8.40;;;;;;;-4.97;77.44;91587.95;1851696;76;21360;-77
2021/01/31 02:52:10;;;;;;;13.70;8.57;;;;;;;-4.99;77.29;91579.58;1852692;76;21143;-77
2021/01/31 02:54:45;;;;;;;15.50;8.77;;;;;;;-4.99;77.12;91592.84;1851828;76;21173;-77
2021/01/31 02:57:21;;;;;;;;;;;;;;;-4.96;77.35;91578.34;1853710;76;21155;-76
2021/01/31 03:00:00;;;;;;;17.77;10.17;;;;;;;-4.89;77.06;91574.53;1835452;77;20536;-76
2021/01/31 03:02:31;;;;;;;16.60;9.27;;;;;;;-4.87;77.06;91575.50;1792522;76;21582;-76
2021/01/31 03:05:10;;;;;;;15.90;10.10;;;;;;;-4.84;77.25;91577.47;1828336;77;21190;-75
2021/01/31 03:07:51;;;;;;;13.67;9.70;;;;;;;-4.80;77.29;91579.64;1851711;77;21378;-75
2021/01/31 03:10:27;;;;;;;12.73;8.03;;;;;;;-4.82;76.96;91584.51;1852059;76;21610;-78
2021/01/31 03:13:22;;;;;;;15.47;9.13;;;;;;;-4.79;77.05;91578.52;1845688;76;21328;-77
2021/01/31 03:15:55;;;;;;;13.93;9.30;;;;;;;-4.75;76.73;91579.37;1855300;76;21442;-74
2021/01/31 03:18:28;;;;;;;14.03;8.77;;;;;;;-4.70;76.67;91579.13;1852288;76;21198;-75
2021/01/31 03:21:03;;;;;;;12.83;8.10;;;;;;;-4.68;76.36;91570.25;1800578;79;21211;-75
2021/01/31 03:23:49;;;;;;;14.13;9.87;;;;;;;-4.65;76.06;91576.20;1784995;78;21217;-75
2021/01/31 03:26:24;;;;;;;15.37;9.07;;;;;;;-4.65;76.35;91564.27;1737342;82;21214;-76
2021/01/31 03:28:52;;;;;;;13.72;9.15;;;;;;;-4.62;75.76;91562.81;1774460;79;21288;-76
2021/01/31 03:31:21;;;;;;;14.73;9.53;;;;;;;-4.64;75.50;91567.67;1751835;80;21221;-76
2021/01/31 03:33:55;;;;;;;15.30;9.50;;;;;;;-4.62;75.82;91572.66;1773218;80;21104;-75
2021/01/31 03:36:25;;;;;;;14.83;8.15;;;;;;;-4.59;75.65;91575.92;1756668;80;21147;-76
2021/01/31 03:38:53;;;;;;;13.87;8.60;;;;;;;-4.65;75.93;91574.10;1767495;81;21161;-75
2021/01/31 03:41:26;;;;;;;11.13;7.07;;;;;;;-4.72;75.50;91585.31;1794570;79;21780;-75
2021/01/31 03:43:54;;;;;;;13.33;8.23;;;;;;;-4.80;76.23;91584.95;1772783;79;21203;-75
2021/01/31 03:46:47;;;;;;;16.97;9.17;;;;;;;-4.85;77.08;91587.08;1764911;79;21132;-75
2021/01/31 03:49:25;;;;;;;13.60;8.27;;;;;;;-4.89;77.46;91585.66;1755289;81;21186;-75
2021/01/31 03:51:54;;;;;;;14.20;8.30;;;;;;;-4.95;77.88;91594.45;1769092;79;21172;-75
2021/01/31 03:54:21;;;;;;;18.30;9.57;;;;;;;-4.92;78.02;91594.33;1783393;80;22363;-75
2021/01/31 03:56:55;;;;;;;15.87;9.07;;;;;;;-4.90;78.26;91590.77;1808749;78;21503;-75
2021/01/31 03:59:28;;;;;;;17.37;10.13;;;;;;;-4.94;78.21;91593.33;1813815;78;21190;-75
2021/01/31 04:01:55;;;;;;;12.97;7.90;;;;;;;-4.92;78.00;91595.66;1810862;77;21226;-75
2021/01/31 04:04:44;;;;;;;16.00;8.53;;;;;;;-4.94;77.93;91595.98;1810445;78;21166;-74
2021/01/31 04:07:17;;;;;;;13.23;8.00;;;;;;;-4.97;77.79;91603.29;1814971;77;21793;-77
2021/01/31 04:09:45;;;;;;;14.03;9.10;;;;;;;-5.04;78.32;91603.14;1807037;79;21168;-74
2021/01/31 04:12:16;;;;;;;17.83;10.60;;;;;;;-5.06;78.89;91617.84;1751138;80;21196;-75
2021/01/31 04:14:48;;;;;;;19.03;11.27;;;;;;;-5.10;79.11;91616.98;1804723;78;21131;-75
2021/01/31 04:17:15;;;;;;;19.47;11.47;;;;;;;-5.10;79.43;91623.61;1814197;77;21155;-75
2021/01/31 04:19:43;;;;;;;20.37;11.60;;;;;;;-5.12;79.64;91622.61;1806079;77;22207;-75
2021/01/31 04:22:10;;;;;;;22.23;11.13;;;;;;;-5.14;79.88;91634.13;1798324;78;21290;-75
2021/01/31 04:24:38;;;;;;;19.47;11.63;;;;;;;-5.16;80.00;91631.03;1811764;77;21160;-75
2021/01/31 04:27:05;;;;;;;19.30;11.90;;;;;;;-5.12;80.42;91631.33;1798300;77;21527;-76
2021/01/31 04:29:34;;;;;;;21.43;12.43;;;;;;;-5.02;80.59;91631.95;1808536;79;21657;-76
2021/01/31 04:32:02;;;;;;;24.57;12.93;;;;;;;-5.01;80.40;91637.45;1805204;77;22215;-75
2021/01/31 04:34:30;;;;;;;20.93;12.50;;;;;;;-5.03;80.59;91645.77;1799871;78;21215;-75
2021/01/31 04:36:57;;;;;;;23.83;13.57;;;;;;;-5.05;80.54;91645.88;1811071;77;21139;-75
2021/01/31 04:39:25;;;;;;;23.63;13.93;;;;;;;-5.08;80.78;91641.25;1796347;78;22163;-75
2021/01/31 04:41:55;;;;;;;23.33;13.60;;;;;;;-5.13;80.98;91642.28;1784500;79;21159;-76
2021/01/31 04:44:24;;;;;;;22.63;13.73;;;;;;;-5.15;81.15;91643.96;1773403;79;21191;-76
2021/01/31 04:47:01;;;;;;;27.87;14.87;;;;;;;-5.18;81.26;91643.31;1769502;79;21135;-76
2021/01/31 04:49:49;;;;;;;28.57;15.60;;;;;;;-5.19;81.21;91647.08;1808396;77;21203;-76
2021/01/31 04:52:59;;;;;;;22.43;13.60;;;;;;;-5.21;81.18;91646.64;1794106;78;21183;-75
2021/01/31 04:56:03;;;;;;;27.53;13.97;;;;;;;-5.24;81.09;91650.52;1809664;77;21270;-76
2021/01/31 04:58:37;;;;;;;25.13;13.27;;;;;;;-5.26;81.42;91657.49;1799190;78;22421;-75
2021/01/31 05:01:24;;;;;;;17.27;10.67;;;;;;;-5.26;81.41;91651.43;1788021;78;21103;-76
2021/01/31 05:04:05;;;;;;;23.27;12.10;;;;;;;-5.28;81.53;91658.38;1796932;78;21155;-76
2021/01/31 05:06:51;;;;;;;20.43;12.20;;;;;;;-5.29;81.66;91656.08;1810131;77;21163;-78
2021/01/31 05:09:22;;;;;;;20.43;11.50;;;;;;;-5.30;81.75;91651.34;1796759;77;21128;-77
2021/01/31 05:12:14;;;;;;;16.60;10.37;;;;;;;-5.31;81.82;91660.38;1806725;79;21379;-76
2021/01/31 05:15:13;;;;;;;21.00;11.70;;;;;;;-5.31;81.94;91662.25;1800920;77;21203;-77
2021/01/31 05:17:43;;;;;;;16.37;9.83;;;;;;;-5.33;82.13;91663.93;1806809;79;21136;-80
2021/01/31 05:20:11;;;;;;;15.70;9.57;;;;;;;-5.35;82.33;91668.78;1781545;79;21176;-77
2021/01/31 05:22:44;;;;;;;16.10;9.63;;;;;;;-5.35;82.59;91673.31;1803780;79;21177;-76
2021/01/31 05:25:15;;;;;;;17.07;10.93;;;;;;;-5.30;82.84;91678.36;1811256;79;22231;-75
2021/01/31 05:27:43;;;;;;;19.50;11.87;;;;;;;-5.26;82.62;91683.98;1771663;79;21625;-77
2021/01/31 05:30:13;;;;;;;16.70;11.53;;;;;;;-5.28;82.57;91682.78;1803708;78;21128;-76
2021/01/31 05:33:02;;;;;;;20.10;11.63;;;;;;;-5.26;82.73;91684.55;1762596;81;21196;-76
2021/01/31 05:35:32;;;;;;;16.97;10.73;;;;;;;-5.19;82.71;91684.70;1760382;79;21703;-76
2021/01/31 05:38:01;;;;;;;20.77;12.03;;;;;;;-5.14;82.61;91679.95;1737249;82;21631;-76
2021/01/31 05:40:38;;;;;;;16.23;9.47;;;;;;;-5.09;82.38;91688.20;1737284;82;21583;-76
2021/01/31 05:43:06;;;;;;;17.80;11.00;;;;;;;-5.06;82.21;91686.75;1735020;82;21312;-77
2021/01/31 05:45:38;;;;;;;17.67;11.40;;;;;;;-5.12;82.07;91695.50;1736864;82;21164;-75
2021/01/31 05:48:25;;;;;;;23.13;12.97;;;;;;;-5.16;82.28;91706.56;1742999;82;21136;-74
2021/01/31 05:50:53;;;;;;;22.13;11.63;;;;;;;-5.21;82.39;91702.28;1739181;82;22265;-74
2021/01/31 05:53:45;;;;;;;18.23;11.40;;;;;;;-5.26;82.42;91705.75;1738946;81;21208;-74
2021/01/31 05:56:23;;;;;;;19.27;10.60;;;;;;;-5.25;82.63;91711.26;1745357;82;21148;-76
2021/01/31 05:59:08;;;;;;;18.93;10.80;;;;;;;-5.22;82.62;91722.51;1745921;82;21208;-73
2021/01/31 06:02:01;;;;;;;23.83;12.90;;;;;;;-5.18;82.69;91727.34;1793445;78;21672;-76
2021/01/31 06:04:29;;;;;;;26.67;13.47;;;;;;;-5.10;82.76;91726.42;1774384;79;21238;-75
2021/01/31 06:07:09;;;;;;;19.03;11.57;;;;;;;-5.03;82.46;91723.95;1746867;81;21152;-74
2021/01/31 06:09:42;;;;;;;18.20;10.77;;;;;;;-5.01;82.15;91724.37;1771150;79;21179;-74
2021/01/31 06:12:23;;;;;;;16.83;9.93;;;;;;;-4.96;81.99;91731.33;1803779;78;22109;-76
2021/01/31 06:15:16;;;;;;;17.33;10.10;;;;;;;-4.91;81.90;91729.75;1760849;81;21278;-75
2021/01/31 06:17:44;;;;;;;17.70;9.50;;;;;;;-4.95;81.59;91732.31;1703670;78;21804;-75
2021/01/31 06:20:15;;;;;;;27.07;14.00;;;;;;;-5.02;81.69;91732.12;1767340;78;21191;-76
2021/01/31 06:22:46;;;;;;;41.80;19.80;;;;;;;-5.07;81.83;91736.91;1745852;79;21265;-75
2021/01/31 06:25:35;;;;;;;36.27;17.83;;;;;;;-5.12;82.03;91749.83;1770291;80;21501;-76
2021/01/31 06:28:24;;;;;;;39.03;20.60;;;;;;;-5.14;82.32;91747.53;1801199;79;21160;-74
2021/01/31 06:31:22;;;;;;;38.93;19.47;;;;;;;-5.15;82.52;91754.50;1801012;77;21903;-74
2021/01/31 06:33:49;;;;;;;27.27;15.23;;;;;;;-5.09;82.45;91754.45;1849925;76;21606;-76
2021/01/31 06:36:48;;;;;;;28.20;14.33;;;;;;;-5.09;82.03;91755.78;1849393;76;21198;-77
2021/01/31 06:39:38;;;;;;;33.80;16.60;;;;;;;-5.11;82.01;91761.99;1830092;76;21877;-77
2021/01/31 06:42:36;;;;;;;28.00;13.77;;;;;;;-5.12;81.82;91767.06;1789076;78;21633;-76
2021/01/31 06:45:35;;;;;;;27.47;14.53;;;;;;;-5.14;81.84;91772.70;1838672;76;21441;-75
2021/01/31 06:48:34;;;;;;;27.93;15.37;;;;;;;-5.14;82.05;91778.01;1837442;76;21584;-76
2021/01/31 06:51:19;;;;;;;19.93;11.43;;;;;;;-5.11;82.05;91781.88;1839617;76;21144;-77
2021/01/31 06:54:08;;;;;;;22.65;11.33;;;;;;;-5.10;82.02;91782.64;1839712;76;21143;-75
2021/01/31 06:56:45;;;;;;;18.10;10.43;;;;;;;-5.10;81.72;91786.05;1839262;76;21697;-73
2021/01/31 06:59:45;;;;;;;17.43;9.67;;;;;;;-5.10;81.29;91786.62;1750200;80;21207;-74
2021/01/31 07:02:43;;;;;;;15.33;9.23;;;;;;;-5.13;81.06;91794.67;1796348;79;21228;-74
2021/01/31 07:05:39;;;;;;;18.07;9.27;;;;;;;-5.13;81.24;91799.98;1764841;78;21491;-75
2021/01/31 07:08:36;;;;;;;17.30;9.70;;;;;;;-5.13;81.03;91796.77;1739391;79;21203;-74
2021/01/31 07:11:43;;;;;;;28.30;14.03;;;;;;;-5.12;80.81;91803.61;1768761;80;21559;-75
2021/01/31 07:14:22;;;;;;;28.00;13.27;;;;;;;-5.08;80.94;91800.28;1848680;76;21741;-75
2021/01/31 07:17:21;;;;;;;18.20;9.43;;;;;;;-5.05;81.23;91806.24;1846127;76;21198;-76
2021/01/31 07:19:54;;;;;;;13.30;7.93;;;;;;;-5.03;80.94;91809.34;1847128;76;21649;-76
2021/01/31 07:22:41;;;;;;;14.03;8.77;;;;;;;-5.00;80.55;91817.39;1851916;76;21159;-75
2021/01/31 07:25:12;;;;;;;;;;;;;;;-4.97;80.68;91818.58;1852014;76;21050;-74
2021/01/31 07:27:53;;;;;;;14.30;7.80;;;;;;;-4.92;80.64;91821.01;1847585;76;21192;-75
2021/01/31 07:30:34;;;;;;;14.27;8.03;;;;;;;-4.87;80.32;91828.71;1848110;76;21174;-74
2021/01/31 07:33:27;;;;;;;17.37;10.47;;;;;;;-4.85;79.93;91830.48;1848176;77;21115;-74
2021/01/31 07:35:58;;;;;;;11.87;7.47;;;;;;;-4.84;79.67;91836.00;1848026;76;21728;-76
2021/01/31 07:38:49;;;;;;;8.47;5.60;;;;;;;-4.80;79.83;91837.42;1799615;78;21156;-75
2021/01/31 07:41:17;;;;;;;10.87;7.00;;;;;;;-4.80;79.37;91842.72;1783465;78;21194;-76
2021/01/31 07:43:45;;;;;;;11.20;7.17;;;;;;;-4.77;79.62;91845.47;1829335;77;21186;-75
2021/01/31 07:46:15;;;;;;;8.97;6.00;;;;;;;-4.71;79.42;91846.75;1795145;77;21473;-76
2021/01/31 07:48:55;;;;;;;9.60;6.60;;;;;;;-4.69;79.39;91847.20;1727141;82;21223;-75
2021/01/31 07:51:37;;;;;;;8.13;5.43;;;;;;;-4.71;79.04;91853.39;1742174;81;21294;-74
2021/01/31 07:54:04;;;;;;;8.10;5.47;;;;;;;-4.75;78.79;91848.55;1799388;79;21717;-74
2021/01/31 07:56:36;;;;;;;8.40;4.57;;;;;;;-4.75;78.63;91847.22;1697542;84;21167;-75
2021/01/31 07:59:15;;;;;;;7.93;5.40;;;;;;;-4.72;78.45;91847.88;1739570;82;21204;-73
2021/01/31 08:01:49;;;;;;;11.53;6.50;;;;;;;-4.68;78.59;91855.92;1727019;80;21215;-74
2021/01/31 08:04:21;;;;;;;9.40;5.63;;;;;;;-4.68;78.37;91848.73;1743170;79;21119;-73
2021/01/31 08:06:56;;;;;;;11.63;6.47;;;;;;;-4.69;78.20;91855.72;1776054;80;21385;-73
2021/01/31 08:09:35;;;;;;;18.25;9.73;;;;;;;-4.71;78.22;91853.94;1756769;80;21181;-74
2021/01/31 08:12:09;;;;;;;16.07;8.67;;;;;;;-4.73;78.37;91861.48;1748652;82;21153;-73
2021/01/31 08:15:11;;;;;;;18.53;10.33;;;;;;;-4.75;78.35;91855.17;1806555;78;21164;-74
2021/01/31 08:17:56;;;;;;;20.87;10.40;;;;;;;-4.81;78.78;91864.50;1768050;81;21175;-74
2021/01/31 08:20:34;;;;;;;19.73;10.87;;;;;;;-4.82;79.09;91862.93;1762965;80;21453;-75
2021/01/31 08:23:34;;;;;;;22.80;13.10;;;;;;;-4.79;79.41;91863.59;1751364;81;21145;-74
2021/01/31 08:26:05;;;;;;;29.73;15.70;;;;;;;-4.80;79.64;91867.36;1754759;80;21120;-75
2021/01/31 08:28:35;;;;;;;22.17;12.60;;;;;;;-4.79;79.69;91862.27;1774598;80;21097;-75
2021/01/31 08:31:09;;;;;;;24.83;14.63;;;;;;;-4.75;80.14;91867.67;1793616;78;21091;-74
2021/01/31 08:33:42;;;;;;;21.85;12.68;;;;;;;-4.69;80.26;91867.66;1799068;79;21593;-75
2021/01/31 08:36:19;;;;;;;19.87;11.53;;;;;;;-4.61;80.33;91873.92;1792544;79;21555;-75
2021/01/31 08:38:52;;;;;;;20.03;11.73;;;;;;;-4.53;80.29;91876.98;1759105;81;22025;-75
2021/01/31 08:41:34;;;;;;;13.30;8.20;;;;;;;-4.44;80.14;91873.60;1713100;81;21461;-75
2021/01/31 08:44:16;;;;;;;14.83;8.43;;;;;;;-4.38;79.64;91870.93;1727199;81;21155;-75
2021/01/31 08:47:01;;;;;;;12.97;7.10;;;;;;;-4.37;79.55;91875.12;1731238;82;21785;-75
2021/01/31 08:49:29;;;;;;;12.55;7.05;;;;;;;-4.38;79.56;91885.52;1725211;81;21187;-76
2021/01/31 08:52:00;;;;;;;14.47;7.80;;;;;;;-4.35;79.62;91885.41;1746980;81;21690;-75
2021/01/31 08:54:28;;;;;;;15.27;9.57;;;;;;;-4.32;79.43;91886.84;1723830;80;21664;-77
2021/01/31 08:57:05;;;;;;;16.13;9.83;;;;;;;-4.30;79.45;91880.61;1773823;80;21221;-75
2021/01/31 08:59:47;;;;;;;18.97;10.63;;;;;;;-4.27;79.33;91877.28;1775001;80;21367;-74
2021/01/31 09:02:20;;;;;;;15.17;8.87;;;;;;;-4.25;79.39;91875.61;1745436;80;21207;-73
2021/01/31 09:04:57;;;;;;;13.93;8.33;;;;;;;-4.19;79.39;91876.35;1694234;81;21212;-73
2021/01/31 09:07:36;;;;;;;13.83;8.23;;;;;;;-4.12;79.19;91880.31;1727462;82;21202;-74
2021/01/31 09:10:32;;;;;;;18.43;10.33;;;;;;;-4.07;79.13;91876.06;1753321;80;21539;-74
2021/01/31 09:13:14;;;;;;;19.73;10.77;;;;;;;-4.05;79.00;91877.84;1737177;81;22797;-74
2021/01/31 09:15:42;;;;;;;22.07;12.13;;;;;;;-4.01;79.24;91880.78;1720804;81;21190;-73
2021/01/31 09:18:22;;;;;;;19.80;11.67;;;;;;;-3.90;79.33;91878.40;1769574;81;21212;-73
2021/01/31 09:20:50;;;;;;;20.50;11.67;;;;;;;-3.82;79.08;91868.16;1768889;81;21165;-73
2021/01/31 09:23:23;;;;;;;22.10;12.40;;;;;;;-3.79;78.64;91871.46;1771654;80;21165;-74
2021/01/31 09:25:50;;;;;;;21.37;11.20;;;;;;;-3.77;78.50;91865.80;1771267;80;21665;-74
2021/01/31 09:28:24;;;;;;;15.03;9.47;;;;;;;-3.75;78.32;91860.36;1770080;80;21196;-74
2021/01/31 09:30:59;;;;;;;16.73;9.60;;;;;;;-3.74;77.84;91852.59;1771463;80;21160;-73
2021/01/31 09:33:38;;;;;;;19.45;9.78;;;;;;;-3.72;77.67;91856.26;1771576;80;21239;-74
2021/01/31 09:36:22;;;;;;;18.20;10.50;;;;;;;-3.71;77.35;91862.55;1708842;83;21217;-74
2021/01/31 09:38:58;;;;;;;19.23;10.73;;;;;;;-3.62;77.65;91854.38;1842413;77;22836;-75
2021/01/31 09:41:28;;;;;;;16.27;9.07;;;;;;;-3.60;77.07;91854.82;1827096;78;22219;-74
2021/01/31 09:44:02;;;;;;;14.53;8.67;;;;;;;-3.57;76.81;91853.34;1823320;78;21175;-74
2021/01/31 09:46:31;;;;;;;18.15;9.55;;;;;;;-3.54;76.69;91850.77;1822202;77;21648;-74
2021/01/31 09:49:09;;;;;;;15.67;8.90;;;;;;;-3.49;76.46;91852.41;1806117;78;21155;-74
2021/01/31 09:51:36;;;;;;;17.63;9.17;;;;;;;-3.40;76.38;91853.55;1822221;76;21155;-74
2021/01/31 09:54:26;;;;;;;17.23;8.40;;;;;;;-3.34;75.93;91856.16;1881213;76;21154;-74
2021/01/31 09:56:55;;;;;;;18.07;9.60;;;;;;;-3.29;75.75;91855.32;1864490;76;21378;-75
2021/01/31 09:59:34;;;;;;;19.87;10.60;;;;;;;-3.20;75.58;91863.89;1854208;76;21203;-74
2021/01/31 10:02:20;;;;;;;18.60;9.90;;;;;;;-3.17;75.41;91860.52;1849975;77;21166;-73
2021/01/31 10:04:56;;;;;;;21.47;12.23;;;;;;;-3.17;75.43;91861.08;1888882;74;21127;-75
2021/01/31 10:07:34;;;;;;;20.70;11.50;;;;;;;-3.15;75.28;91862.84;1916629;74;21542;-76
2021/01/31 10:10:24;;;;;;;22.77;12.10;;;;;;;-3.15;75.26;91864.17;1884774;75;21429;-76
2021/01/31 10:13:27;;;;;;;19.67;11.80;;;;;;;-3.11;75.32;91860.27;1858235;74;21622;-75
2021/01/31 10:16:00;;;;;;;21.53;11.30;;;;;;;-3.00;75.38;91858.03;1921653;74;21138;-76
2021/01/31 10:18:37;;;;;;;17.67;9.87;;;;;;;-2.91;74.45;91863.14;1851067;77;21191;-75
2021/01/31 10:21:30;;;;;;;20.00;11.97;;;;;;;-2.89;74.29;91859.59;1927950;73;21127;-74
2021/01/31 10:24:17;;;;;;;18.03;11.20;;;;;;;-2.91;74.23;91861.81;1892364;74;21225;-75
2021/01/31 10:26:45;;;;;;;19.10;10.33;;;;;;;-2.87;73.96;91861.33;1882594;75;21615;-74
2021/01/31 10:29:23;;;;;;;18.47;10.43;;;;;;;-2.82;74.29;91864.27;1862005;76;21166;-74
2021/01/31 10:31:50;;;;;;;17.47;11.30;;;;;;;-2.76;73.96;91863.64;1882139;73;21218;-74
2021/01/31 10:34:39;;;;;;;16.67;10.43;;;;;;;-2.76;73.80;91866.87;1910770;74;21263;-73
2021/01/31 10:37:34;;;;;;;18.87;10.80;;;;;;;-2.77;73.77;91878.64;1860821;74;21167;-73
2021/01/31 10:40:07;;;;;;;16.30;9.77;;;;;;;-2.82;73.81;91879.69;1894126;74;21151;-75
2021/01/31 10:42:35;;;;;;;17.73;10.57;;;;;;;-2.80;73.91;91871.34;1888953;75;21148;-74
2021/01/31 10:45:14;;;;;;;18.77;10.90;;;;;;;-2.73;73.87;91873.59;1881125;75;21143;-74
2021/01/31 10:47:46;;;;;;;18.97;9.90;;;;;;;-2.66;73.19;91863.66;1868356;75;21195;-74
2021/01/31 10:50:15;;;;;;;14.50;9.00;;;;;;;-2.57;73.40;91862.11;1855542;77;21213;-77
2021/01/31 10:52:43;;;;;;;18.23;10.90;;;;;;;-2.53;73.33;91874.36;1877022;74;21171;-74
2021/01/31 10:55:12;;;;;;;15.17;9.50;;;;;;;-2.54;73.00;91870.16;1922186;74;21127;-74
2021/01/31 10:57:40;;;;;;;15.57;10.60;;;;;;;-2.54;72.96;91872.83;1889015;75;21658;-76
2021/01/31 11:00:10;;;;;;;18.47;10.87;;;;;;;-2.50;73.33;91871.00;1881846;75;21131;-74
2021/01/31 11:02:38;;;;;;;18.40;11.30;;;;;;;-2.43;73.06;91857.62;1871356;76;22271;-74
2021/01/31 11:05:07;;;;;;;17.03;9.60;;;;;;;-2.45;73.25;91864.61;1892882;74;21593;-74
2021/01/31 11:07:34;;;;;;;19.00;11.37;;;;;;;-2.43;73.52;91865.61;1872058;75;21189;-75
2021/01/31 11:10:02;;;;;;;16.40;10.33;;;;;;;-2.40;73.61;91866.25;1807483;79;21168;-76
2021/01/31 11:12:30;;;;;;;15.83;9.63;;;;;;;-2.40;73.47;91868.34;1827703;78;22183;-76
2021/01/31 11:14:57;;;;;;;15.53;10.33;;;;;;;-2.41;73.19;91870.78;1889391;75;21371;-76
2021/01/31 11:17:25;;;;;;;18.70;11.57;;;;;;;-2.42;73.19;91875.13;1881894;75;21222;-76
2021/01/31 11:19:52;;;;;;;16.13;10.40;;;;;;;-2.40;73.19;91872.34;1862006;76;21177;-74
2021/01/31 11:22:19;;;;;;;18.03;10.43;;;;;;;-2.36;72.86;91862.52;1863791;76;21506;-76
2021/01/31 11:24:47;;;;;;;16.43;10.13;;;;;;;-2.36;72.60;91861.19;1825883;78;21149;-75
2021/01/31 11:27:14;;;;;;;18.73;11.40;;;;;;;-2.33;72.60;91870.34;1850838;77;21649;-75
2021/01/31 11:29:42;;;;;;;18.17;10.73;;;;;;;-2.33;72.47;91871.14;1902526;74;21174;-76
2021/01/31 11:32:09;;;;;;;17.97;10.27;;;;;;;-2.34;72.54;91868.25;1909280;74;21139;-75
2021/01/31 11:34:37;;;;;;;19.83;11.30;;;;;;;-2.33;72.38;91871.14;1886552;75;21175;-76
2021/01/31 11:37:05;;;;;;;17.60;10.90;;;;;;;-2.36;72.24;91875.83;1879749;76;21142;-73
2021/01/31 11:39:32;;;;;;;15.97;10.10;;;;;;;-2.34;72.49;91870.91;1862295;76;22108;-74
2021/01/31 11:42:00;;;;;;;17.70;10.87;;;;;;;-2.29;72.29;91867.22;1853005;77;21187;-74
2021/01/31 11:44:28;;;;;;;19.17;10.97;;;;;;;-2.29;72.08;91866.66;1849757;77;21436;-74
2021/01/31 11:46:55;;;;;;;17.13;11.50;;;;;;;-2.28;71.72;91867.42;1850349;77;21108;-76
2021/01/31 11:49:22;;;;;;;17.40;10.97;;;;;;;-2.30;71.91;91864.33;1825040;74;21127;-75
2021/01/31 11:51:50;;;;;;;20.10;11.23;;;;;;;-2.30;72.00;91868.31;1929764;74;22149;-75
2021/01/31 11:54:17;;;;;;;20.80;11.23;;;;;;;-2.31;71.85;91865.45;1896169;74;21174;-75
2021/01/31 11:56:45;;;;;;;21.50;11.87;;;;;;;-2.34;71.77;91865.59;1865620;75;21044;-76
2021/01/31 11:59:12;;;;;;;21.67;11.27;;;;;;;-2.41;71.70;91864.12;1881156;74;21166;-75
2021/01/31 12:01:41;;;;;;;17.83;11.20;;;;;;;-2.52;71.72;91868.47;1921530;74;21242;-76